sensor_id;sensor_type;location;lat;lon;timestamp;pressure;altitude;pressure_sealevel;temperature;humidity
14293;BME280;62290;59.420;17.842;2023-05-14T00:01:43;102186.44;;;23.11;27.49
14293;BME280;62290;59.420;17.842;2023-05-14T00:04:12;102164.84;;;22.99;27.49
14293;BME280;62290;59.420;17.842;2023-05-14T00:06:40;102184.81;;;23.09;27.32
14293;BME280;62290;59.420;17.842;2023-05-14T00:09:08;102170.22;;;22.99;27.53
14293;BME280;62290;59.420;17.842;2023-05-14T00:11:36;102162.69;;;22.90;27.22
14293;BME280;62290;59.420;17.842;2023-05-14T00:14:05;102192.94;;;23.07;27.57
14293;BME280;62290;59.420;17.842;2023-05-14T00:16:34;102187.69;;;23.06;27.35
14293;BME280;62290;59.420;17.842;2023-05-14T00:19:02;102185.94;;;23.05;27.65
14293;BME280;62290;59.420;17.842;2023-05-14T00:21:30;102195.94;;;23.03;27.67
14293;BME280;62290;59.420;17.842;2023-05-14T00:23:58;102187.88;;;23.03;27.54
14293;BME280;62290;59.420;17.842;2023-05-14T00:26:26;102195.16;;;23.01;27.75
14293;BME280;62290;59.420;17.842;2023-05-14T00:28:54;102181.50;;;22.90;27.58
14293;BME280;62290;59.420;17.842;2023-05-14T00:31:24;102177.69;;;22.94;27.95
14293;BME280;62290;59.420;17.842;2023-05-14T00:33:52;102194.47;;;22.97;27.85
14293;BME280;62290;59.420;17.842;2023-05-14T00:36:20;102197.16;;;22.97;27.75
14293;BME280;62290;59.420;17.842;2023-05-14T00:38:48;102192.84;;;22.95;27.71
14293;BME280;62290;59.420;17.842;2023-05-14T00:41:16;102193.66;;;22.97;27.83
14293;BME280;62290;59.420;17.842;2023-05-14T00:43:44;102199.03;;;22.97;27.80
14293;BME280;62290;59.420;17.842;2023-05-14T00:46:13;102191.03;;;22.95;27.98
14293;BME280;62290;59.420;17.842;2023-05-14T00:48:43;102191.91;;;22.96;27.78
14293;BME280;62290;59.420;17.842;2023-05-14T00:51:11;102193.84;;;22.94;28.17
14293;BME280;62290;59.420;17.842;2023-05-14T00:53:40;102197.47;;;22.93;28.16
14293;BME280;62290;59.420;17.842;2023-05-14T00:56:09;102195.66;;;22.93;27.99
14293;BME280;62290;59.420;17.842;2023-05-14T00:58:37;102195.72;;;22.92;28.17
14293;BME280;62290;59.420;17.842;2023-05-14T01:01:05;102193.25;;;22.89;28.28
14293;BME280;62290;59.420;17.842;2023-05-14T01:03:34;102194.88;;;22.91;28.20
14293;BME280;62290;59.420;17.842;2023-05-14T01:06:10;102198.53;;;22.90;28.31
14293;BME280;62290;59.420;17.842;2023-05-14T01:08:48;102194.97;;;22.90;28.17
14293;BME280;62290;59.420;17.842;2023-05-14T01:11:20;102196.78;;;22.89;28.13
14293;BME280;62290;59.420;17.842;2023-05-14T01:14:01;102192.38;;;22.88;28.25
14293;BME280;62290;59.420;17.842;2023-05-14T01:16:32;102187.06;;;22.87;28.36
14293;BME280;62290;59.420;17.842;2023-05-14T01:19:01;102190.75;;;22.86;28.25
14293;BME280;62290;59.420;17.842;2023-05-14T01:21:42;102181.13;;;22.82;28.28
14293;BME280;62290;59.420;17.842;2023-05-14T01:24:10;102185.56;;;22.83;28.32
14293;BME280;62290;59.420;17.842;2023-05-14T01:26:38;102181.13;;;22.82;28.56
14293;BME280;62290;59.420;17.842;2023-05-14T01:29:10;102182.00;;;22.82;28.68
14293;BME280;62290;59.420;17.842;2023-05-14T01:31:42;102192.84;;;22.81;28.31
14293;BME280;62290;59.420;17.842;2023-05-14T01:34:13;102184.03;;;22.79;28.45
14293;BME280;62290;59.420;17.842;2023-05-14T01:36:43;102177.25;;;22.71;28.44
14293;BME280;62290;59.420;17.842;2023-05-14T01:39:12;102186.97;;;22.74;28.65
14293;BME280;62290;59.420;17.842;2023-05-14T01:41:41;102180.41;;;22.64;28.60
14293;BME280;62290;59.420;17.842;2023-05-14T01:44:11;102188.78;;;22.73;28.58
14293;BME280;62290;59.420;17.842;2023-05-14T01:46:39;102186.66;;;22.64;28.65
14293;BME280;62290;59.420;17.842;2023-05-14T01:49:07;102188.03;;;22.71;28.71
14293;BME280;62290;59.420;17.842;2023-05-14T01:51:35;102187.16;;;22.71;28.59
14293;BME280;62290;59.420;17.842;2023-05-14T01:54:05;102190.81;;;22.70;28.65
14293;BME280;62290;59.420;17.842;2023-05-14T01:56:32;102172.63;;;22.59;28.55
14293;BME280;62290;59.420;17.842;2023-05-14T01:59:01;102199.94;;;22.67;28.68
14293;BME280;62290;59.420;17.842;2023-05-14T02:01:29;102194.63;;;22.66;28.76
14293;BME280;62290;59.420;17.842;2023-05-14T02:03:57;102190.22;;;22.65;28.88
14293;BME280;62290;59.420;17.842;2023-05-14T02:06:26;102193.84;;;22.64;28.86
14293;BME280;62290;59.420;17.842;2023-05-14T02:08:55;102200.22;;;22.63;28.69
14293;BME280;62290;59.420;17.842;2023-05-14T02:11:24;102200.25;;;22.61;28.95
14293;BME280;62290;59.420;17.842;2023-05-14T02:13:52;102198.50;;;22.60;28.86
14293;BME280;62290;59.420;17.842;2023-05-14T02:16:20;102196.78;;;22.59;28.66
14293;BME280;62290;59.420;17.842;2023-05-14T02:18:50;102201.31;;;22.59;29.21
14293;BME280;62290;59.420;17.842;2023-05-14T02:21:18;102200.34;;;22.60;29.04
14293;BME280;62290;59.420;17.842;2023-05-14T02:23:46;102195.81;;;22.60;28.99
14293;BME280;62290;59.420;17.842;2023-05-14T02:26:15;102195.81;;;22.60;29.15
14293;BME280;62290;59.420;17.842;2023-05-14T02:28:44;102188.72;;;22.59;28.98
14293;BME280;62290;59.420;17.842;2023-05-14T02:31:12;102195.94;;;22.59;29.15
14293;BME280;62290;59.420;17.842;2023-05-14T02:33:43;102198.63;;;22.59;29.30
14293;BME280;62290;59.420;17.842;2023-05-14T02:36:11;102192.38;;;22.58;29.30
14293;BME280;62290;59.420;17.842;2023-05-14T02:38:39;102193.41;;;22.56;29.17
14293;BME280;62290;59.420;17.842;2023-05-14T02:41:07;102200.44;;;22.58;29.15
14293;BME280;62290;59.420;17.842;2023-05-14T02:43:35;102195.16;;;22.57;29.34
14293;BME280;62290;59.420;17.842;2023-05-14T02:46:04;102196.88;;;22.58;29.59
14293;BME280;62290;59.420;17.842;2023-05-14T02:48:32;102195.06;;;22.58;29.19
14293;BME280;62290;59.420;17.842;2023-05-14T02:51:01;102199.66;;;22.56;29.30
14293;BME280;62290;59.420;17.842;2023-05-14T02:53:29;102196.22;;;22.54;29.28
14293;BME280;62290;59.420;17.842;2023-05-14T02:55:57;102197.84;;;22.57;29.22
14293;BME280;62290;59.420;17.842;2023-05-14T02:58:25;102197.91;;;22.55;29.42
14293;BME280;62290;59.420;17.842;2023-05-14T03:00:54;102192.75;;;22.52;29.39
14293;BME280;62290;59.420;17.842;2023-05-14T03:03:24;102200.59;;;22.55;29.54
14293;BME280;62290;59.420;17.842;2023-05-14T03:05:53;102201.59;;;22.54;29.57
14293;BME280;62290;59.420;17.842;2023-05-14T03:08:21;102172.94;;;22.39;29.50
14293;BME280;62290;59.420;17.842;2023-05-14T03:10:49;102197.91;;;22.55;29.40
14293;BME280;62290;59.420;17.842;2023-05-14T03:13:17;102205.97;;;22.55;29.60
14293;BME280;62290;59.420;17.842;2023-05-14T03:15:46;102203.28;;;22.55;29.62
14293;BME280;62290;59.420;17.842;2023-05-14T03:18:14;102195.44;;;22.52;29.62
14293;BME280;62290;59.420;17.842;2023-05-14T03:20:46;102194.28;;;22.56;29.83
14293;BME280;62290;59.420;17.842;2023-05-14T03:23:14;102196.97;;;22.56;29.75
14293;BME280;62290;59.420;17.842;2023-05-14T03:25:42;102199.50;;;22.59;29.81
14293;BME280;62290;59.420;17.842;2023-05-14T03:28:10;102181.22;;;22.50;29.61
14293;BME280;62290;59.420;17.842;2023-05-14T03:30:38;102207.13;;;22.67;29.62
14293;BME280;62290;59.420;17.842;2023-05-14T03:33:06;102180.56;;;22.61;29.50
14293;BME280;62290;59.420;17.842;2023-05-14T03:35:35;102196.84;;;22.73;29.56
14293;BME280;62290;59.420;17.842;2023-05-14T03:38:04;102197.94;;;22.85;29.65
14293;BME280;62290;59.420;17.842;2023-05-14T03:40:33;102195.94;;;22.89;29.37
14293;BME280;62290;59.420;17.842;2023-05-14T03:43:01;102196.53;;;22.94;29.75
14293;BME280;62290;59.420;17.842;2023-05-14T03:45:29;102198.91;;;22.98;29.37
14293;BME280;62290;59.420;17.842;2023-05-14T03:47:57;102197.69;;;23.04;29.42
14293;BME280;62290;59.420;17.842;2023-05-14T03:50:26;102185.75;;;23.08;29.49
14293;BME280;62290;59.420;17.842;2023-05-14T03:52:54;102179.25;;;23.12;29.51
14293;BME280;62290;59.420;17.842;2023-05-14T03:55:23;102159.47;;;22.99;29.69
14293;BME280;62290;59.420;17.842;2023-05-14T03:57:51;102182.31;;;23.20;29.62
14293;BME280;62290;59.420;17.842;2023-05-14T04:00:20;102181.16;;;23.24;29.73
14293;BME280;62290;59.420;17.842;2023-05-14T04:02:50;102181.84;;;23.27;29.56
14293;BME280;62290;59.420;17.842;2023-05-14T04:05:18;102180.66;;;23.31;29.50
14293;BME280;62290;59.420;17.842;2023-05-14T04:07:46;102177.66;;;23.36;29.54
14293;BME280;62290;59.420;17.842;2023-05-14T04:10:14;102179.25;;;23.40;29.54
14293;BME280;62290;59.420;17.842;2023-05-14T04:12:44;102174.56;;;23.44;29.45
14293;BME280;62290;59.420;17.842;2023-05-14T04:15:12;102168.00;;;23.48;29.52
14293;BME280;62290;59.420;17.842;2023-05-14T04:17:41;102170.38;;;23.52;29.54
14293;BME280;62290;59.420;17.842;2023-05-14T04:20:11;102165.00;;;23.52;29.45
14293;BME280;62290;59.420;17.842;2023-05-14T04:22:39;102162.88;;;23.57;29.58
14293;BME280;62290;59.420;17.842;2023-05-14T04:25:07;102160.75;;;23.62;29.63
14293;BME280;62290;59.420;17.842;2023-05-14T04:27:35;102165.00;;;23.66;29.55
14293;BME280;62290;59.420;17.842;2023-05-14T04:30:06;102168.25;;;23.71;29.59
14293;BME280;62290;59.420;17.842;2023-05-14T04:32:35;102155.75;;;23.70;29.55
14293;BME280;62290;59.420;17.842;2023-05-14T04:35:04;102159.78;;;23.77;29.50
14293;BME280;62290;59.420;17.842;2023-05-14T04:37:34;102165.72;;;23.82;29.40
14293;BME280;62290;59.420;17.842;2023-05-14T04:40:02;102157.44;;;23.85;29.35
14293;BME280;62290;59.420;17.842;2023-05-14T04:42:30;102152.69;;;23.89;29.38
14293;BME280;62290;59.420;17.842;2023-05-14T04:44:58;102151.44;;;23.94;29.44
14293;BME280;62290;59.420;17.842;2023-05-14T04:47:28;102162.75;;;24.00;29.39
14293;BME280;62290;59.420;17.842;2023-05-14T04:49:56;102160.75;;;24.03;29.43
14293;BME280;62290;59.420;17.842;2023-05-14T04:52:24;102157.72;;;24.08;29.39
14293;BME280;62290;59.420;17.842;2023-05-14T04:54:52;102152.06;;;24.12;29.40
14293;BME280;62290;59.420;17.842;2023-05-14T04:57:20;102158.13;;;24.16;29.40
14293;BME280;62290;59.420;17.842;2023-05-14T04:59:48;102152.63;;;24.17;29.38
14293;BME280;62290;59.420;17.842;2023-05-14T05:02:17;102155.84;;;24.22;29.18
14293;BME280;62290;59.420;17.842;2023-05-14T05:04:46;102154.78;;;24.25;29.36
14293;BME280;62290;59.420;17.842;2023-05-14T05:07:14;102159.97;;;24.28;29.20
14293;BME280;62290;59.420;17.842;2023-05-14T05:09:42;102158.81;;;24.32;29.21
14293;BME280;62290;59.420;17.842;2023-05-14T05:12:10;102154.19;;;24.34;29.27
14293;BME280;62290;59.420;17.842;2023-05-14T05:14:38;102149.47;;;24.37;29.32
14293;BME280;62290;59.420;17.842;2023-05-14T05:17:06;102126.78;;;24.27;28.93
14293;BME280;62290;59.420;17.842;2023-05-14T05:19:34;102142.88;;;24.41;29.37
14293;BME280;62290;59.420;17.842;2023-05-14T05:22:11;102145.16;;;24.47;28.82
14293;BME280;62290;59.420;17.842;2023-05-14T05:24:39;102144.09;;;24.50;28.98
14293;BME280;62290;59.420;17.842;2023-05-14T05:27:07;102148.41;;;24.52;29.11
14293;BME280;62290;59.420;17.842;2023-05-14T05:29:35;102132.75;;;24.45;28.93
14293;BME280;62290;59.420;17.842;2023-05-14T05:32:04;102146.25;;;24.58;28.86
14293;BME280;62290;59.420;17.842;2023-05-14T05:34:33;102151.44;;;24.61;28.83
14293;BME280;62290;59.420;17.842;2023-05-14T05:37:01;102094.03;;;24.33;28.83
14293;BME280;62290;59.420;17.842;2023-05-14T05:39:33;102142.81;;;24.68;28.71
14293;BME280;62290;59.420;17.842;2023-05-14T05:42:01;102152.72;;;24.68;28.64
14293;BME280;62290;59.420;17.842;2023-05-14T05:44:29;102138.03;;;24.72;28.52
14293;BME280;62290;59.420;17.842;2023-05-14T05:46:57;102136.97;;;24.74;28.51
14293;BME280;62290;59.420;17.842;2023-05-14T05:49:25;102141.31;;;24.77;28.42
14293;BME280;62290;59.420;17.842;2023-05-14T05:51:53;102146.50;;;24.80;28.52
14293;BME280;62290;59.420;17.842;2023-05-14T05:54:22;102140.88;;;24.83;28.48
14293;BME280;62290;59.420;17.842;2023-05-14T05:56:52;102136.38;;;24.83;27.97
14293;BME280;62290;59.420;17.842;2023-05-14T05:59:20;102141.44;;;24.88;28.22
14293;BME280;62290;59.420;17.842;2023-05-14T06:01:48;102139.38;;;24.91;28.00
14293;BME280;62290;59.420;17.842;2023-05-14T06:04:16;102137.34;;;24.95;27.92
14293;BME280;62290;59.420;17.842;2023-05-14T06:06:44;102136.25;;;24.97;27.82
14293;BME280;62290;59.420;17.842;2023-05-14T06:09:12;102056.84;;;24.51;27.58
14293;BME280;62290;59.420;17.842;2023-05-14T06:11:40;102134.94;;;25.03;27.80
14293;BME280;62290;59.420;17.842;2023-05-14T06:14:09;102141.97;;;25.05;27.82
14293;BME280;62290;59.420;17.842;2023-05-14T06:16:37;102147.13;;;25.08;27.76
14293;BME280;62290;59.420;17.842;2023-05-14T06:19:05;102145.94;;;25.12;27.63
14293;BME280;62290;59.420;17.842;2023-05-14T06:21:34;102146.69;;;25.14;27.95
14293;BME280;62290;59.420;17.842;2023-05-14T06:24:02;102144.75;;;25.16;27.48
14293;BME280;62290;59.420;17.842;2023-05-14T06:26:30;102142.78;;;25.18;27.63
14293;BME280;62290;59.420;17.842;2023-05-14T06:28:58;102140.75;;;25.22;27.66
14293;BME280;62290;59.420;17.842;2023-05-14T06:31:28;102140.66;;;25.24;27.73
14293;BME280;62290;59.420;17.842;2023-05-14T06:33:56;102134.19;;;25.26;27.94
14293;BME280;62290;59.420;17.842;2023-05-14T06:36:24;102128.53;;;25.29;27.60
14293;BME280;62290;59.420;17.842;2023-05-14T06:38:52;102137.41;;;25.31;27.98
14293;BME280;62290;59.420;17.842;2023-05-14T06:41:20;102141.72;;;25.34;27.64
14293;BME280;62290;59.420;17.842;2023-05-14T06:43:48;102144.19;;;25.37;27.69
14293;BME280;62290;59.420;17.842;2023-05-14T06:46:16;102133.63;;;25.34;27.81
14293;BME280;62290;59.420;17.842;2023-05-14T06:48:45;102136.63;;;25.42;28.02
14293;BME280;62290;59.420;17.842;2023-05-14T06:51:13;102127.53;;;25.43;27.94
14293;BME280;62290;59.420;17.842;2023-05-14T06:53:42;102136.38;;;25.45;27.83
14293;BME280;62290;59.420;17.842;2023-05-14T06:56:09;102140.84;;;25.46;28.15
14293;BME280;62290;59.420;17.842;2023-05-14T06:58:39;102140.63;;;25.49;28.28
14293;BME280;62290;59.420;17.842;2023-05-14T07:01:07;102138.66;;;25.51;28.20
14293;BME280;62290;59.420;17.842;2023-05-14T07:03:35;102131.53;;;25.50;28.05
14293;BME280;62290;59.420;17.842;2023-05-14T07:06:05;102140.19;;;25.55;28.17
14293;BME280;62290;59.420;17.842;2023-05-14T07:08:33;102136.50;;;25.56;27.75
14293;BME280;62290;59.420;17.842;2023-05-14T07:11:01;102134.66;;;25.56;27.82
14293;BME280;62290;59.420;17.842;2023-05-14T07:13:29;102138.97;;;25.59;27.63
14293;BME280;62290;59.420;17.842;2023-05-14T07:15:57;102140.72;;;25.60;27.94
14293;BME280;62290;59.420;17.842;2023-05-14T07:18:26;102141.44;;;25.62;27.67
14293;BME280;62290;59.420;17.842;2023-05-14T07:20:54;102134.22;;;25.62;28.07
14293;BME280;62290;59.420;17.842;2023-05-14T07:23:24;102145.75;;;25.64;27.64
14293;BME280;62290;59.420;17.842;2023-05-14T07:25:52;102135.91;;;25.63;27.63
14293;BME280;62290;59.420;17.842;2023-05-14T07:28:20;102137.53;;;25.66;27.41
14293;BME280;62290;59.420;17.842;2023-05-14T07:30:48;102131.25;;;25.65;27.75
14293;BME280;62290;59.420;17.842;2023-05-14T07:33:16;102126.63;;;25.67;27.81
14293;BME280;62290;59.420;17.842;2023-05-14T07:35:44;102127.72;;;25.65;27.36
14293;BME280;62290;59.420;17.842;2023-05-14T07:38:12;102122.09;;;25.68;27.90
14293;BME280;62290;59.420;17.842;2023-05-14T07:40:41;102122.84;;;25.70;27.29
14293;BME280;62290;59.420;17.842;2023-05-14T07:43:10;102109.91;;;25.62;27.54
14293;BME280;62290;59.420;17.842;2023-05-14T07:45:38;102115.69;;;25.69;27.26
14293;BME280;62290;59.420;17.842;2023-05-14T07:48:06;102114.84;;;25.68;26.98
14293;BME280;62290;59.420;17.842;2023-05-14T07:50:35;102087.38;;;25.51;27.35
14293;BME280;62290;59.420;17.842;2023-05-14T07:53:03;102114.84;;;25.68;26.88
14293;BME280;62290;59.420;17.842;2023-05-14T07:55:31;102087.16;;;25.54;27.09
14293;BME280;62290;59.420;17.842;2023-05-14T07:58:01;102094.97;;;25.69;27.28
14293;BME280;62290;59.420;17.842;2023-05-14T08:00:29;102104.91;;;25.69;27.23
14293;BME280;62290;59.420;17.842;2023-05-14T08:02:57;102105.91;;;25.68;27.30
14293;BME280;62290;59.420;17.842;2023-05-14T08:05:26;102097.66;;;25.69;27.12
14293;BME280;62290;59.420;17.842;2023-05-14T08:07:54;102100.25;;;25.71;27.06
14293;BME280;62290;59.420;17.842;2023-05-14T08:10:22;102096.44;;;25.73;27.56
14293;BME280;62290;59.420;17.842;2023-05-14T08:12:50;102087.59;;;25.71;27.88
14293;BME280;62290;59.420;17.842;2023-05-14T08:15:20;102093.44;;;25.78;27.93
14293;BME280;62290;59.420;17.842;2023-05-14T08:17:49;102091.56;;;25.78;27.79
14293;BME280;62290;59.420;17.842;2023-05-14T08:20:17;102095.91;;;25.81;28.08
14293;BME280;62290;59.420;17.842;2023-05-14T08:22:45;102089.50;;;25.82;27.95
14293;BME280;62290;59.420;17.842;2023-05-14T08:25:13;102088.53;;;25.83;28.62
14293;BME280;62290;59.420;17.842;2023-05-14T08:27:41;102091.13;;;25.85;28.65
14293;BME280;62290;59.420;17.842;2023-05-14T08:30:10;102082.13;;;25.84;28.15
14293;BME280;62290;59.420;17.842;2023-05-14T08:32:39;102089.06;;;25.88;27.66
14293;BME280;62290;59.420;17.842;2023-05-14T08:35:08;102079.34;;;25.86;27.91
14293;BME280;62290;59.420;17.842;2023-05-14T08:37:36;102084.50;;;25.89;27.84
14293;BME280;62290;59.420;17.842;2023-05-14T08:40:05;102082.66;;;25.89;27.50
14293;BME280;62290;59.420;17.842;2023-05-14T08:42:35;102085.25;;;25.91;27.17
14293;BME280;62290;59.420;17.842;2023-05-14T08:45:12;102083.44;;;25.91;26.57
14293;BME280;62290;59.420;17.842;2023-05-14T08:47:46;102082.56;;;25.91;26.73
14293;BME280;62290;59.420;17.842;2023-05-14T08:50:16;102079.84;;;25.91;26.36
14293;BME280;62290;59.420;17.842;2023-05-14T08:52:48;102078.84;;;25.92;26.56
14293;BME280;62290;59.420;17.842;2023-05-14T08:55:17;102078.03;;;25.91;26.46
14293;BME280;62290;59.420;17.842;2023-05-14T08:57:45;102082.44;;;25.92;26.33
14293;BME280;62290;59.420;17.842;2023-05-14T09:00:14;102076.16;;;25.92;25.92
14293;BME280;62290;59.420;17.842;2023-05-14T09:02:45;102067.94;;;25.93;25.89
14293;BME280;62290;59.420;17.842;2023-05-14T09:05:16;102064.50;;;25.91;25.82
14293;BME280;62290;59.420;17.842;2023-05-14T09:07:45;102072.34;;;25.94;25.77
14293;BME280;62290;59.420;17.842;2023-05-14T09:10:14;102077.75;;;25.94;25.86
14293;BME280;62290;59.420;17.842;2023-05-14T09:12:43;102075.06;;;25.94;26.27
14293;BME280;62290;59.420;17.842;2023-05-14T09:15:11;102065.34;;;25.92;26.40
14293;BME280;62290;59.420;17.842;2023-05-14T09:17:39;102074.22;;;25.94;26.17
14293;BME280;62290;59.420;17.842;2023-05-14T09:20:11;102067.09;;;25.93;25.73
14293;BME280;62290;59.420;17.842;2023-05-14T09:22:39;102055.41;;;25.81;26.22
14293;BME280;62290;59.420;17.842;2023-05-14T09:25:09;102079.72;;;25.92;26.08
14293;BME280;62290;59.420;17.842;2023-05-14T09:27:38;102062.56;;;25.93;25.97
14293;BME280;62290;59.420;17.842;2023-05-14T09:30:08;102063.41;;;25.94;25.89
14293;BME280;62290;59.420;17.842;2023-05-14T09:32:38;102062.56;;;25.93;25.85
14293;BME280;62290;59.420;17.842;2023-05-14T09:35:15;102054.44;;;25.93;25.92
14293;BME280;62290;59.420;17.842;2023-05-14T09:37:45;102056.16;;;25.94;25.80
14293;BME280;62290;59.420;17.842;2023-05-14T09:40:14;102058.97;;;25.93;25.81
14293;BME280;62290;59.420;17.842;2023-05-14T09:42:43;102049.13;;;25.92;25.92
14293;BME280;62290;59.420;17.842;2023-05-14T09:45:11;102055.41;;;25.92;26.04
14293;BME280;62290;59.420;17.842;2023-05-14T09:47:39;102052.94;;;25.89;25.86
14293;BME280;62290;59.420;17.842;2023-05-14T09:50:08;102047.53;;;25.89;26.04
14293;BME280;62290;59.420;17.842;2023-05-14T09:52:37;102051.97;;;25.90;26.13
14293;BME280;62290;59.420;17.842;2023-05-14T09:55:06;102052.94;;;25.89;26.65
14293;BME280;62290;59.420;17.842;2023-05-14T09:57:34;102058.34;;;25.89;26.92
14293;BME280;62290;59.420;17.842;2023-05-14T10:00:03;102052.22;;;25.87;27.06
14293;BME280;62290;59.420;17.842;2023-05-14T10:02:35;102042.41;;;25.86;26.54
14293;BME280;62290;59.420;17.842;2023-05-14T10:05:06;102036.13;;;25.86;27.03
14293;BME280;62290;59.420;17.842;2023-05-14T10:07:39;102044.22;;;25.86;26.66
14293;BME280;62290;59.420;17.842;2023-05-14T10:10:12;102039.94;;;25.83;26.53
14293;BME280;62290;59.420;17.842;2023-05-14T10:12:45;102040.03;;;25.82;26.58
14293;BME280;62290;59.420;17.842;2023-05-14T10:15:19;102029.34;;;25.80;26.18
14293;BME280;62290;59.420;17.842;2023-05-14T10:17:53;102031.19;;;25.80;26.39
14293;BME280;62290;59.420;17.842;2023-05-14T10:20:23;102027.63;;;25.79;25.96
14293;BME280;62290;59.420;17.842;2023-05-14T10:22:54;102003.00;;;25.60;25.77
14293;BME280;62290;59.420;17.842;2023-05-14T10:25:23;102026.00;;;25.76;26.27
14293;BME280;62290;59.420;17.842;2023-05-14T10:27:51;102015.44;;;25.73;25.76
14293;BME280;62290;59.420;17.842;2023-05-14T10:30:20;102015.34;;;25.75;25.73
14293;BME280;62290;59.420;17.842;2023-05-14T10:33:04;102021.72;;;25.74;26.06
14293;BME280;62290;59.420;17.842;2023-05-14T10:35:54;102010.31;;;25.70;26.04
14293;BME280;62290;59.420;17.842;2023-05-14T10:38:26;102009.22;;;25.73;25.70
14293;BME280;62290;59.420;17.842;2023-05-14T10:40:56;102011.03;;;25.72;26.04
14293;BME280;62290;59.420;17.842;2023-05-14T10:43:26;102008.34;;;25.72;25.80
14293;BME280;62290;59.420;17.842;2023-05-14T10:45:55;102001.56;;;25.67;26.06
14293;BME280;62290;59.420;17.842;2023-05-14T10:48:24;101999.50;;;25.70;26.21
14293;BME280;62290;59.420;17.842;2023-05-14T10:50:53;101998.63;;;25.70;25.80
14293;BME280;62290;59.420;17.842;2023-05-14T10:53:31;101995.81;;;25.71;25.67
14293;BME280;62290;59.420;17.842;2023-05-14T10:56:04;101990.53;;;25.70;25.96
14293;BME280;62290;59.420;17.842;2023-05-14T10:58:35;101993.22;;;25.70;25.94
14293;BME280;62290;59.420;17.842;2023-05-14T11:01:05;101962.09;;;25.53;25.62
14293;BME280;62290;59.420;17.842;2023-05-14T11:03:40;101984.41;;;25.68;25.61
14293;BME280;62290;59.420;17.842;2023-05-14T11:06:09;101988.94;;;25.67;25.26
14293;BME280;62290;59.420;17.842;2023-05-14T11:08:40;101982.03;;;25.63;25.22
14293;BME280;62290;59.420;17.842;2023-05-14T11:11:09;101984.50;;;25.66;25.24
14293;BME280;62290;59.420;17.842;2023-05-14T11:13:37;101985.47;;;25.65;25.11
14293;BME280;62290;59.420;17.842;2023-05-14T11:16:05;101971.97;;;25.65;25.14
14293;BME280;62290;59.420;17.842;2023-05-14T11:18:52;101934.94;;;25.44;25.08
14293;BME280;62290;59.420;17.842;2023-05-14T11:21:21;101973.06;;;25.63;24.76
14293;BME280;62290;59.420;17.842;2023-05-14T11:23:51;101978.13;;;25.67;24.75
14293;BME280;62290;59.420;17.842;2023-05-14T11:26:22;101972.97;;;25.64;25.02
14293;BME280;62290;59.420;17.842;2023-05-14T11:28:50;101966.56;;;25.65;24.53
14293;BME280;62290;59.420;17.842;2023-05-14T11:31:20;101969.16;;;25.67;25.02
14293;BME280;62290;59.420;17.842;2023-05-14T11:33:51;101933.94;;;25.45;24.55
14293;BME280;62290;59.420;17.842;2023-05-14T11:36:19;101971.84;;;25.67;24.71
14293;BME280;62290;59.420;17.842;2023-05-14T11:38:47;101971.00;;;25.66;24.46
14293;BME280;62290;59.420;17.842;2023-05-14T11:41:18;101965.59;;;25.66;24.21
14293;BME280;62290;59.420;17.842;2023-05-14T11:43:49;101970.03;;;25.67;24.13
14293;BME280;62290;59.420;17.842;2023-05-14T11:46:17;101956.25;;;25.59;23.95
14293;BME280;62290;59.420;17.842;2023-05-14T11:48:45;101957.84;;;25.62;24.09
14293;BME280;62290;59.420;17.842;2023-05-14T11:51:14;101962.03;;;25.66;23.63
14293;BME280;62290;59.420;17.842;2023-05-14T11:53:42;101965.72;;;25.65;23.92
14293;BME280;62290;59.420;17.842;2023-05-14T11:56:11;101963.03;;;25.65;23.88
14293;BME280;62290;59.420;17.842;2023-05-14T11:58:46;101956.75;;;25.64;23.61
14293;BME280;62290;59.420;17.842;2023-05-14T12:01:14;101937.97;;;25.63;23.87
14293;BME280;62290;59.420;17.842;2023-05-14T12:03:42;101945.97;;;25.64;23.51
14293;BME280;62290;59.420;17.842;2023-05-14T12:06:11;101941.53;;;25.63;23.80
14293;BME280;62290;59.420;17.842;2023-05-14T12:08:39;101948.75;;;25.63;23.49
14293;BME280;62290;59.420;17.842;2023-05-14T12:11:07;101943.34;;;25.63;23.80
14293;BME280;62290;59.420;17.842;2023-05-14T12:13:35;101947.91;;;25.62;23.55
14293;BME280;62290;59.420;17.842;2023-05-14T12:16:05;101938.81;;;25.63;23.27
14293;BME280;62290;59.420;17.842;2023-05-14T12:18:33;101937.97;;;25.63;23.57
14293;BME280;62290;59.420;17.842;2023-05-14T12:21:02;101944.34;;;25.62;23.39
14293;BME280;62290;59.420;17.842;2023-05-14T12:23:31;101946.06;;;25.63;22.85
14293;BME280;62290;59.420;17.842;2023-05-14T12:26:02;101936.13;;;25.63;23.33
14293;BME280;62290;59.420;17.842;2023-05-14T12:28:32;101947.06;;;25.62;23.12
14293;BME280;62290;59.420;17.842;2023-05-14T12:31:05;101930.84;;;25.62;22.80
14293;BME280;62290;59.420;17.842;2023-05-14T12:33:33;101936.25;;;25.62;23.16
14293;BME280;62290;59.420;17.842;2023-05-14T12:36:01;101931.72;;;25.62;23.30
14293;BME280;62290;59.420;17.842;2023-05-14T12:38:32;101927.16;;;25.63;22.87
14293;BME280;62290;59.420;17.842;2023-05-14T12:41:02;101928.91;;;25.64;22.83
14293;BME280;62290;59.420;17.842;2023-05-14T12:43:30;101922.63;;;25.63;22.83
14293;BME280;62290;59.420;17.842;2023-05-14T12:45:58;101927.16;;;25.63;22.91
14293;BME280;62290;59.420;17.842;2023-05-14T12:48:28;101919.81;;;25.65;22.75
14293;BME280;62290;59.420;17.842;2023-05-14T12:50:56;101927.06;;;25.64;23.14